sensor_id;sensor_type;location;lat;lon;timestamp;temperature;humidity
46976;DHT22;32724;51.094;6.996;2024-02-26T00:02:15;6.40;99.90
46976;DHT22;32724;51.094;6.996;2024-02-26T00:04:40;6.50;99.90
46976;DHT22;32724;51.094;6.996;2024-02-26T00:07:06;6.60;99.90
46976;DHT22;32724;51.094;6.996;2024-02-26T00:09:32;6.60;99.90
46976;DHT22;32724;51.094;6.996;2024-02-26T00:12:01;6.60;99.90
46976;DHT22;32724;51.094;6.996;2024-02-26T00:14:29;6.70;99.90
46976;DHT22;32724;51.094;6.996;2024-02-26T00:16:55;6.70;99.90
46976;DHT22;32724;51.094;6.996;2024-02-26T00:19:20;6.70;99.90
46976;DHT22;32724;51.094;6.996;2024-02-26T00:21:46;6.60;99.90
46976;DHT22;32724;51.094;6.996;2024-02-26T00:24:11;6.50;99.90
46976;DHT22;32724;51.094;6.996;2024-02-26T00:26:37;6.50;99.90
46976;DHT22;32724;51.094;6.996;2024-02-26T00:29:02;6.70;99.90
46976;DHT22;32724;51.094;6.996;2024-02-26T00:31:28;6.60;99.90
46976;DHT22;32724;51.094;6.996;2024-02-26T00:33:53;6.40;99.90
46976;DHT22;32724;51.094;6.996;2024-02-26T00:36:19;6.20;99.90
46976;DHT22;32724;51.094;6.996;2024-02-26T00:38:44;6.20;99.90
46976;DHT22;32724;51.094;6.996;2024-02-26T00:41:18;6.30;99.90
46976;DHT22;32724;51.094;6.996;2024-02-26T00:43:44;6.30;99.90
46976;DHT22;32724;51.094;6.996;2024-02-26T00:46:10;6.40;99.90
46976;DHT22;32724;51.094;6.996;2024-02-26T00:48:36;6.50;99.90
46976;DHT22;32724;51.094;6.996;2024-02-26T00:51:03;6.60;99.90
46976;DHT22;32724;51.094;6.996;2024-02-26T00:53:30;6.70;99.90
46976;DHT22;32724;51.094;6.996;2024-02-26T00:55:56;6.70;99.90
46976;DHT22;32724;51.094;6.996;2024-02-26T00:58:22;6.80;99.90
46976;DHT22;32724;51.094;6.996;2024-02-26T01:00:47;6.90;99.90
46976;DHT22;32724;51.094;6.996;2024-02-26T01:03:13;7.00;99.90
46976;DHT22;32724;51.094;6.996;2024-02-26T01:05:38;7.10;99.90
46976;DHT22;32724;51.094;6.996;2024-02-26T01:08:04;7.20;99.90
46976;DHT22;32724;51.094;6.996;2024-02-26T01:10:30;7.10;99.90
46976;DHT22;32724;51.094;6.996;2024-02-26T01:12:56;7.20;99.90
46976;DHT22;32724;51.094;6.996;2024-02-26T01:15:22;7.20;99.90
46976;DHT22;32724;51.094;6.996;2024-02-26T01:17:49;7.10;99.90
46976;DHT22;32724;51.094;6.996;2024-02-26T01:20:16;6.80;99.90
46976;DHT22;32724;51.094;6.996;2024-02-26T01:22:43;6.60;99.90
46976;DHT22;32724;51.094;6.996;2024-02-26T01:25:08;6.70;99.90
46976;DHT22;32724;51.094;6.996;2024-02-26T01:27:35;6.70;99.90
46976;DHT22;32724;51.094;6.996;2024-02-26T01:30:03;6.60;99.90
46976;DHT22;32724;51.094;6.996;2024-02-26T01:32:29;6.40;99.90
46976;DHT22;32724;51.094;6.996;2024-02-26T01:34:55;6.30;99.90
46976;DHT22;32724;51.094;6.996;2024-02-26T01:37:21;6.20;99.90
46976;DHT22;32724;51.094;6.996;2024-02-26T01:39:46;6.10;99.90
46976;DHT22;32724;51.094;6.996;2024-02-26T01:42:12;6.10;99.90
46976;DHT22;32724;51.094;6.996;2024-02-26T01:44:37;6.10;99.90
46976;DHT22;32724;51.094;6.996;2024-02-26T01:47:05;6.20;99.90
46976;DHT22;32724;51.094;6.996;2024-02-26T01:49:31;6.10;99.90
46976;DHT22;32724;51.094;6.996;2024-02-26T01:51:57;6.10;99.90
46976;DHT22;32724;51.094;6.996;2024-02-26T01:54:23;6.10;99.90
46976;DHT22;32724;51.094;6.996;2024-02-26T01:56:50;6.10;99.90
46976;DHT22;32724;51.094;6.996;2024-02-26T01:59:16;6.10;99.90
46976;DHT22;32724;51.094;6.996;2024-02-26T02:01:44;6.00;99.90
46976;DHT22;32724;51.094;6.996;2024-02-26T02:04:12;5.90;99.90
46976;DHT22;32724;51.094;6.996;2024-02-26T02:06:38;5.90;99.90
46976;DHT22;32724;51.094;6.996;2024-02-26T02:09:04;6.00;99.90
46976;DHT22;32724;51.094;6.996;2024-02-26T02:11:33;6.00;99.90
46976;DHT22;32724;51.094;6.996;2024-02-26T02:13:59;6.00;99.90
46976;DHT22;32724;51.094;6.996;2024-02-26T02:16:25;6.00;99.90
46976;DHT22;32724;51.094;6.996;2024-02-26T02:18:50;6.10;99.90
46976;DHT22;32724;51.094;6.996;2024-02-26T02:21:16;6.00;99.90
46976;DHT22;32724;51.094;6.996;2024-02-26T02:23:42;6.00;99.90
46976;DHT22;32724;51.094;6.996;2024-02-26T02:26:14;6.00;99.90
46976;DHT22;32724;51.094;6.996;2024-02-26T02:28:40;6.00;99.90
46976;DHT22;32724;51.094;6.996;2024-02-26T02:31:06;5.60;99.90
46976;DHT22;32724;51.094;6.996;2024-02-26T02:33:33;5.60;99.90
46976;DHT22;32724;51.094;6.996;2024-02-26T02:35:59;5.50;99.90
46976;DHT22;32724;51.094;6.996;2024-02-26T02:38:24;5.50;99.90
46976;DHT22;32724;51.094;6.996;2024-02-26T02:40:51;5.60;99.90
46976;DHT22;32724;51.094;6.996;2024-02-26T02:43:17;5.60;99.90
46976;DHT22;32724;51.094;6.996;2024-02-26T02:45:43;5.70;99.90
46976;DHT22;32724;51.094;6.996;2024-02-26T02:48:10;5.70;99.90
46976;DHT22;32724;51.094;6.996;2024-02-26T02:50:36;5.70;99.90
46976;DHT22;32724;51.094;6.996;2024-02-26T02:53:02;5.80;99.90
46976;DHT22;32724;51.094;6.996;2024-02-26T02:55:27;5.80;99.90
46976;DHT22;32724;51.094;6.996;2024-02-26T02:57:53;5.70;99.90
46976;DHT22;32724;51.094;6.996;2024-02-26T03:00:19;5.70;99.90
46976;DHT22;32724;51.094;6.996;2024-02-26T03:02:44;5.70;99.90
46976;DHT22;32724;51.094;6.996;2024-02-26T03:05:11;5.80;99.90
46976;DHT22;32724;51.094;6.996;2024-02-26T03:07:37;5.80;99.90
46976;DHT22;32724;51.094;6.996;2024-02-26T03:10:02;5.80;99.90
46976;DHT22;32724;51.094;6.996;2024-02-26T03:12:29;5.80;99.90
46976;DHT22;32724;51.094;6.996;2024-02-26T03:14:55;5.80;99.90
46976;DHT22;32724;51.094;6.996;2024-02-26T03:17:21;5.70;99.90
46976;DHT22;32724;51.094;6.996;2024-02-26T03:19:46;5.80;99.90
46976;DHT22;32724;51.094;6.996;2024-02-26T03:22:13;5.80;99.90
46976;DHT22;32724;51.094;6.996;2024-02-26T03:24:38;5.90;99.90
46976;DHT22;32724;51.094;6.996;2024-02-26T03:27:04;5.80;99.90
46976;DHT22;32724;51.094;6.996;2024-02-26T03:29:35;5.90;99.90
46976;DHT22;32724;51.094;6.996;2024-02-26T03:32:00;6.00;99.90
46976;DHT22;32724;51.094;6.996;2024-02-26T03:34:26;6.00;99.90
46976;DHT22;32724;51.094;6.996;2024-02-26T03:36:52;6.10;99.90
46976;DHT22;32724;51.094;6.996;2024-02-26T03:39:18;6.10;99.90
46976;DHT22;32724;51.094;6.996;2024-02-26T03:41:43;6.10;99.90
46976;DHT22;32724;51.094;6.996;2024-02-26T03:44:09;6.10;99.90
46976;DHT22;32724;51.094;6.996;2024-02-26T03:46:35;6.10;99.90
46976;DHT22;32724;51.094;6.996;2024-02-26T03:49:01;5.80;99.90
46976;DHT22;32724;51.094;6.996;2024-02-26T03:51:26;5.70;99.90
46976;DHT22;32724;51.094;6.996;2024-02-26T03:53:57;5.70;99.90
46976;DHT22;32724;51.094;6.996;2024-02-26T03:56:22;5.70;99.90
46976;DHT22;32724;51.094;6.996;2024-02-26T03:58:48;5.70;99.90
46976;DHT22;32724;51.094;6.996;2024-02-26T04:01:14;5.70;99.90
46976;DHT22;32724;51.094;6.996;2024-02-26T04:03:39;5.70;99.90
46976;DHT22;32724;51.094;6.996;2024-02-26T04:06:08;5.70;99.90
46976;DHT22;32724;51.094;6.996;2024-02-26T04:08:34;5.60;99.90
46976;DHT22;32724;51.094;6.996;2024-02-26T04:10:59;5.70;99.90
46976;DHT22;32724;51.094;6.996;2024-02-26T04:13:25;5.70;99.90
46976;DHT22;32724;51.094;6.996;2024-02-26T04:15:51;5.70;99.90
46976;DHT22;32724;51.094;6.996;2024-02-26T04:18:16;5.70;99.90
46976;DHT22;32724;51.094;6.996;2024-02-26T04:20:42;5.70;99.90
46976;DHT22;32724;51.094;6.996;2024-02-26T04:23:07;5.60;99.90
46976;DHT22;32724;51.094;6.996;2024-02-26T04:25:33;5.60;99.90
46976;DHT22;32724;51.094;6.996;2024-02-26T04:27:59;5.60;99.90
46976;DHT22;32724;51.094;6.996;2024-02-26T04:30:24;5.90;99.90
46976;DHT22;32724;51.094;6.996;2024-02-26T04:32:50;6.00;99.90
46976;DHT22;32724;51.094;6.996;2024-02-26T04:35:15;5.70;99.90
46976;DHT22;32724;51.094;6.996;2024-02-26T04:37:41;5.40;99.90
46976;DHT22;32724;51.094;6.996;2024-02-26T04:40:07;5.30;99.90
46976;DHT22;32724;51.094;6.996;2024-02-26T04:42:33;5.20;99.90
46976;DHT22;32724;51.094;6.996;2024-02-26T04:44:59;5.50;99.90
46976;DHT22;32724;51.094;6.996;2024-02-26T04:47:24;5.60;99.90
46976;DHT22;32724;51.094;6.996;2024-02-26T04:49:50;5.80;99.90
46976;DHT22;32724;51.094;6.996;2024-02-26T04:52:16;5.80;99.90
46976;DHT22;32724;51.094;6.996;2024-02-26T04:54:41;5.90;99.90
46976;DHT22;32724;51.094;6.996;2024-02-26T04:57:07;5.90;99.90
46976;DHT22;32724;51.094;6.996;2024-02-26T04:59:33;5.80;99.90
46976;DHT22;32724;51.094;6.996;2024-02-26T05:01:58;5.90;99.90
46976;DHT22;32724;51.094;6.996;2024-02-26T05:04:24;5.70;99.90
46976;DHT22;32724;51.094;6.996;2024-02-26T05:06:49;5.60;99.90
46976;DHT22;32724;51.094;6.996;2024-02-26T05:09:15;5.60;99.90
46976;DHT22;32724;51.094;6.996;2024-02-26T05:11:41;5.50;99.90
46976;DHT22;32724;51.094;6.996;2024-02-26T05:14:06;5.50;99.90
46976;DHT22;32724;51.094;6.996;2024-02-26T05:16:32;5.60;99.90
46976;DHT22;32724;51.094;6.996;2024-02-26T05:18:57;5.50;99.90
46976;DHT22;32724;51.094;6.996;2024-02-26T05:21:23;5.60;99.90
46976;DHT22;32724;51.094;6.996;2024-02-26T05:23:49;5.60;99.90
46976;DHT22;32724;51.094;6.996;2024-02-26T05:26:21;5.50;99.90
46976;DHT22;32724;51.094;6.996;2024-02-26T05:28:47;5.50;99.90
46976;DHT22;32724;51.094;6.996;2024-02-26T05:31:13;5.40;99.90
46976;DHT22;32724;51.094;6.996;2024-02-26T05:33:39;5.50;99.90
46976;DHT22;32724;51.094;6.996;2024-02-26T05:36:05;5.50;99.90
46976;DHT22;32724;51.094;6.996;2024-02-26T05:38:31;5.40;99.90
46976;DHT22;32724;51.094;6.996;2024-02-26T05:41:00;5.40;99.90
46976;DHT22;32724;51.094;6.996;2024-02-26T05:43:26;5.40;99.90
46976;DHT22;32724;51.094;6.996;2024-02-26T05:45:52;5.50;99.90
46976;DHT22;32724;51.094;6.996;2024-02-26T05:48:17;5.40;99.90
46976;DHT22;32724;51.094;6.996;2024-02-26T05:50:47;5.50;99.90
46976;DHT22;32724;51.094;6.996;2024-02-26T05:53:13;5.60;99.90
46976;DHT22;32724;51.094;6.996;2024-02-26T05:55:38;5.60;99.90
46976;DHT22;32724;51.094;6.996;2024-02-26T05:58:05;5.70;99.90
46976;DHT22;32724;51.094;6.996;2024-02-26T06:00:30;5.70;99.90
46976;DHT22;32724;51.094;6.996;2024-02-26T06:02:56;5.70;99.90
46976;DHT22;32724;51.094;6.996;2024-02-26T06:05:21;5.70;99.90
46976;DHT22;32724;51.094;6.996;2024-02-26T06:07:47;5.70;99.90
46976;DHT22;32724;51.094;6.996;2024-02-26T06:10:13;5.70;99.90
46976;DHT22;32724;51.094;6.996;2024-02-26T06:12:42;5.40;99.90
46976;DHT22;32724;51.094;6.996;2024-02-26T06:15:07;5.20;99.90
46976;DHT22;32724;51.094;6.996;2024-02-26T06:17:33;5.20;99.90
46976;DHT22;32724;51.094;6.996;2024-02-26T06:19:59;5.20;99.90
46976;DHT22;32724;51.094;6.996;2024-02-26T06:22:25;5.30;99.90
46976;DHT22;32724;51.094;6.996;2024-02-26T06:24:51;5.30;99.90
46976;DHT22;32724;51.094;6.996;2024-02-26T06:27:17;5.30;99.90
46976;DHT22;32724;51.094;6.996;2024-02-26T06:29:42;5.30;99.90
46976;DHT22;32724;51.094;6.996;2024-02-26T06:32:08;5.30;99.90
46976;DHT22;32724;51.094;6.996;2024-02-26T06:34:33;5.30;99.90
46976;DHT22;32724;51.094;6.996;2024-02-26T06:36:59;5.30;99.90
46976;DHT22;32724;51.094;6.996;2024-02-26T06:39:24;5.30;99.90
46976;DHT22;32724;51.094;6.996;2024-02-26T06:41:50;5.40;99.90
46976;DHT22;32724;51.094;6.996;2024-02-26T06:44:15;5.30;99.90
46976;DHT22;32724;51.094;6.996;2024-02-26T06:46:41;5.30;99.90
46976;DHT22;32724;51.094;6.996;2024-02-26T06:49:06;5.40;99.90
46976;DHT22;32724;51.094;6.996;2024-02-26T06:51:32;5.40;99.90
46976;DHT22;32724;51.094;6.996;2024-02-26T06:53:58;5.40;99.90
46976;DHT22;32724;51.094;6.996;2024-02-26T06:56:23;5.40;99.90
46976;DHT22;32724;51.094;6.996;2024-02-26T06:58:49;5.40;99.90
46976;DHT22;32724;51.094;6.996;2024-02-26T07:01:14;5.50;99.90
46976;DHT22;32724;51.094;6.996;2024-02-26T07:03:40;5.60;99.90
46976;DHT22;32724;51.094;6.996;2024-02-26T07:06:06;5.60;99.90
46976;DHT22;32724;51.094;6.996;2024-02-26T07:08:32;5.70;99.90
46976;DHT22;32724;51.094;6.996;2024-02-26T07:10:58;5.70;99.90
46976;DHT22;32724;51.094;6.996;2024-02-26T07:13:23;5.70;99.90
46976;DHT22;32724;51.094;6.996;2024-02-26T07:15:49;5.70;99.90
46976;DHT22;32724;51.094;6.996;2024-02-26T07:18:14;5.70;99.90
46976;DHT22;32724;51.094;6.996;2024-02-26T07:20:40;5.70;99.90
46976;DHT22;32724;51.094;6.996;2024-02-26T07:23:06;5.50;99.90
46976;DHT22;32724;51.094;6.996;2024-02-26T07:25:32;5.40;99.90
46976;DHT22;32724;51.094;6.996;2024-02-26T07:27:57;5.40;99.90
46976;DHT22;32724;51.094;6.996;2024-02-26T07:30:23;5.50;99.90
46976;DHT22;32724;51.094;6.996;2024-02-26T07:32:50;5.50;99.90
46976;DHT22;32724;51.094;6.996;2024-02-26T07:35:15;5.40;99.90
46976;DHT22;32724;51.094;6.996;2024-02-26T07:37:42;5.50;99.90
46976;DHT22;32724;51.094;6.996;2024-02-26T07:40:08;5.50;99.90
46976;DHT22;32724;51.094;6.996;2024-02-26T07:42:34;5.50;99.90
46976;DHT22;32724;51.094;6.996;2024-02-26T07:45:00;5.50;99.90
46976;DHT22;32724;51.094;6.996;2024-02-26T07:47:26;5.50;99.90
46976;DHT22;32724;51.094;6.996;2024-02-26T07:49:51;5.50;99.90
46976;DHT22;32724;51.094;6.996;2024-02-26T07:52:17;5.50;99.90
46976;DHT22;32724;51.094;6.996;2024-02-26T07:54:42;5.50;99.90
46976;DHT22;32724;51.094;6.996;2024-02-26T07:57:08;5.50;99.90
46976;DHT22;32724;51.094;6.996;2024-02-26T07:59:33;5.50;99.90
46976;DHT22;32724;51.094;6.996;2024-02-26T08:01:59;5.50;99.90
46976;DHT22;32724;51.094;6.996;2024-02-26T08:04:26;5.50;99.90
46976;DHT22;32724;51.094;6.996;2024-02-26T08:06:52;5.60;99.90
46976;DHT22;32724;51.094;6.996;2024-02-26T08:09:17;5.70;99.90
46976;DHT22;32724;51.094;6.996;2024-02-26T08:11:43;5.70;99.90
46976;DHT22;32724;51.094;6.996;2024-02-26T08:14:08;5.80;99.90
46976;DHT22;32724;51.094;6.996;2024-02-26T08:16:34;5.80;99.90
46976;DHT22;32724;51.094;6.996;2024-02-26T08:18:59;5.80;99.90
46976;DHT22;32724;51.094;6.996;2024-02-26T08:21:25;5.80;99.90
46976;DHT22;32724;51.094;6.996;2024-02-26T08:23:50;5.80;99.90
46976;DHT22;32724;51.094;6.996;2024-02-26T08:26:16;5.80;99.90
46976;DHT22;32724;51.094;6.996;2024-02-26T08:28:41;5.80;99.90
46976;DHT22;32724;51.094;6.996;2024-02-26T08:31:07;5.50;99.90
46976;DHT22;32724;51.094;6.996;2024-02-26T08:33:33;5.40;99.90
46976;DHT22;32724;51.094;6.996;2024-02-26T08:36:04;5.50;99.90
46976;DHT22;32724;51.094;6.996;2024-02-26T08:38:30;5.60;99.90
46976;DHT22;32724;51.094;6.996;2024-02-26T08:40:55;5.60;99.90
46976;DHT22;32724;51.094;6.996;2024-02-26T08:43:21;5.50;99.90
46976;DHT22;32724;51.094;6.996;2024-02-26T08:45:46;5.60;99.90
46976;DHT22;32724;51.094;6.996;2024-02-26T08:48:12;5.50;99.90
46976;DHT22;32724;51.094;6.996;2024-02-26T08:50:37;5.50;99.90
46976;DHT22;32724;51.094;6.996;2024-02-26T08:53:03;5.60;99.90
46976;DHT22;32724;51.094;6.996;2024-02-26T08:55:29;5.70;99.90
46976;DHT22;32724;51.094;6.996;2024-02-26T08:57:55;5.90;99.90
46976;DHT22;32724;51.094;6.996;2024-02-26T09:00:20;5.80;99.90
46976;DHT22;32724;51.094;6.996;2024-02-26T09:02:49;5.50;99.90
46976;DHT22;32724;51.094;6.996;2024-02-26T09:05:15;5.60;99.90
46976;DHT22;32724;51.094;6.996;2024-02-26T09:07:40;5.60;99.90
46976;DHT22;32724;51.094;6.996;2024-02-26T09:10:06;5.70;99.90
46976;DHT22;32724;51.094;6.996;2024-02-26T09:12:34;5.70;99.90
46976;DHT22;32724;51.094;6.996;2024-02-26T09:15:00;5.70;99.90
46976;DHT22;32724;51.094;6.996;2024-02-26T09:17:25;5.60;99.90
46976;DHT22;32724;51.094;6.996;2024-02-26T09:19:51;5.70;99.90
46976;DHT22;32724;51.094;6.996;2024-02-26T09:22:16;5.80;99.90
46976;DHT22;32724;51.094;6.996;2024-02-26T09:24:42;5.70;99.90
46976;DHT22;32724;51.094;6.996;2024-02-26T09:27:07;5.80;99.90
46976;DHT22;32724;51.094;6.996;2024-02-26T09:29:35;5.80;99.90
46976;DHT22;32724;51.094;6.996;2024-02-26T09:32:01;5.90;99.90
46976;DHT22;32724;51.094;6.996;2024-02-26T09:34:26;5.90;99.90
46976;DHT22;32724;51.094;6.996;2024-02-26T09:36:52;5.90;99.90
46976;DHT22;32724;51.094;6.996;2024-02-26T09:39:17;6.00;99.90
46976;DHT22;32724;51.094;6.996;2024-02-26T09:41:47;5.90;99.90
46976;DHT22;32724;51.094;6.996;2024-02-26T09:44:16;6.00;99.90
46976;DHT22;32724;51.094;6.996;2024-02-26T09:46:44;6.00;99.90
46976;DHT22;32724;51.094;6.996;2024-02-26T09:49:11;6.00;99.90
46976;DHT22;32724;51.094;6.996;2024-02-26T09:51:38;6.00;99.90
46976;DHT22;32724;51.094;6.996;2024-02-26T09:54:04;5.90;99.90
46976;DHT22;32724;51.094;6.996;2024-02-26T09:56:30;5.60;99.90
46976;DHT22;32724;51.094;6.996;2024-02-26T09:58:58;5.60;99.90
46976;DHT22;32724;51.094;6.996;2024-02-26T10:01:24;5.70;99.90
46976;DHT22;32724;51.094;6.996;2024-02-26T10:03:57;5.70;99.90
46976;DHT22;32724;51.094;6.996;2024-02-26T10:06:26;5.70;99.90
46976;DHT22;32724;51.094;6.996;2024-02-26T10:08:53;5.70;99.90
46976;DHT22;32724;51.094;6.996;2024-02-26T10:11:19;5.70;99.90
46976;DHT22;32724;51.094;6.996;2024-02-26T10:13:45;5.70;99.90
46976;DHT22;32724;51.094;6.996;2024-02-26T10:16:11;5.70;99.90
46976;DHT22;32724;51.094;6.996;2024-02-26T10:18:51;5.80;99.90
46976;DHT22;32724;51.094;6.996;2024-02-26T10:21:18;5.80;99.90
46976;DHT22;32724;51.094;6.996;2024-02-26T10:23:45;5.80;99.90
46976;DHT22;32724;51.094;6.996;2024-02-26T10:26:14;5.90;99.90
46976;DHT22;32724;51.094;6.996;2024-02-26T10:28:42;6.00;99.90
46976;DHT22;32724;51.094;6.996;2024-02-26T10:31:08;6.00;99.90
46976;DHT22;32724;51.094;6.996;2024-02-26T10:33:35;6.10;99.90
46976;DHT22;32724;51.094;6.996;2024-02-26T10:36:05;6.20;99.90
46976;DHT22;32724;51.094;6.996;2024-02-26T10:38:32;6.20;99.90
46976;DHT22;32724;51.094;6.996;2024-02-26T10:40:57;6.30;99.90
46976;DHT22;32724;51.094;6.996;2024-02-26T10:43:24;6.30;99.90
46976;DHT22;32724;51.094;6.996;2024-02-26T10:45:50;6.30;99.90
46976;DHT22;32724;51.094;6.996;2024-02-26T10:48:16;6.40;99.90
46976;DHT22;32724;51.094;6.996;2024-02-26T10:50:43;6.40;99.90
46976;DHT22;32724;51.094;6.996;2024-02-26T10:53:15;6.20;99.90
46976;DHT22;32724;51.094;6.996;2024-02-26T10:55:44;6.10;99.90
46976;DHT22;32724;51.094;6.996;2024-02-26T10:58:12;6.20;99.90
46976;DHT22;32724;51.094;6.996;2024-02-26T11:00:39;6.20;99.90
46976;DHT22;32724;51.094;6.996;2024-02-26T11:03:06;6.20;99.90
46976;DHT22;32724;51.094;6.996;2024-02-26T11:05:33;6.30;99.90
46976;DHT22;32724;51.094;6.996;2024-02-26T11:08:00;6.20;99.90
46976;DHT22;32724;51.094;6.996;2024-02-26T11:10:27;6.20;99.90
46976;DHT22;32724;51.094;6.996;2024-02-26T11:12:55;6.20;99.90
46976;DHT22;32724;51.094;6.996;2024-02-26T11:15:21;6.40;99.90
46976;DHT22;32724;51.094;6.996;2024-02-26T11:17:47;6.50;99.90
46976;DHT22;32724;51.094;6.996;2024-02-26T11:20:14;6.70;99.90
46976;DHT22;32724;51.094;6.996;2024-02-26T11:22:40;6.70;99.90
46976;DHT22;32724;51.094;6.996;2024-02-26T11:25:06;6.70;99.90
46976;DHT22;32724;51.094;6.996;2024-02-26T11:27:37;6.70;99.90
46976;DHT22;32724;51.094;6.996;2024-02-26T11:30:05;6.70;99.90
46976;DHT22;32724;51.094;6.996;2024-02-26T11:32:34;6.70;99.90
46976;DHT22;32724;51.094;6.996;2024-02-26T11:35:00;6.80;99.90
46976;DHT22;32724;51.094;6.996;2024-02-26T11:37:27;6.70;99.90
46976;DHT22;32724;51.094;6.996;2024-02-26T11:39:52;6.80;99.90
46976;DHT22;32724;51.094;6.996;2024-02-26T11:42:23;6.80;99.90
46976;DHT22;32724;51.094;6.996;2024-02-26T11:44:50;6.80;99.90
46976;DHT22;32724;51.094;6.996;2024-02-26T11:47:20;6.80;99.90
46976;DHT22;32724;51.094;6.996;2024-02-26T11:49:46;6.90;99.90
46976;DHT22;32724;51.094;6.996;2024-02-26T11:52:13;6.90;99.90
46976;DHT22;32724;51.094;6.996;2024-02-26T11:54:53;6.90;99.90
46976;DHT22;32724;51.094;6.996;2024-02-26T12:00:10;7.00;99.90
46976;DHT22;32724;51.094;6.996;2024-02-26T12:02:46;7.00;99.90
46976;DHT22;32724;51.094;6.996;2024-02-26T12:07:40;7.20;99.90
46976;DHT22;32724;51.094;6.996;2024-02-26T12:10:33;7.20;99.90
46976;DHT22;32724;51.094;6.996;2024-02-26T12:13:14;7.20;99.90
46976;DHT22;32724;51.094;6.996;2024-02-26T12:15:42;7.20;99.90
46976;DHT22;32724;51.094;6.996;2024-02-26T12:18:10;7.30;99.90
46976;DHT22;32724;51.094;6.996;2024-02-26T12:20:37;7.20;99.90
46976;DHT22;32724;51.094;6.996;2024-02-26T12:23:03;7.10;99.90
46976;DHT22;32724;51.094;6.996;2024-02-26T12:25:30;6.90;99.90
46976;DHT22;32724;51.094;6.996;2024-02-26T12:27:57;6.80;99.90
46976;DHT22;32724;51.094;6.996;2024-02-26T12:30:23;6.80;99.90
46976;DHT22;32724;51.094;6.996;2024-02-26T12:32:51;6.80;99.90
46976;DHT22;32724;51.094;6.996;2024-02-26T12:35:17;6.90;99.90
46976;DHT22;32724;51.094;6.996;2024-02-26T12:37:43;7.00;99.90
46976;DHT22;32724;51.094;6.996;2024-02-26T12:40:10;7.00;99.90
46976;DHT22;32724;51.094;6.996;2024-02-26T12:42:36;7.10;99.90
46976;DHT22;32724;51.094;6.996;2024-02-26T12:45:07;7.20;99.90
46976;DHT22;32724;51.094;6.996;2024-02-26T12:47:45;7.20;99.90
46976;DHT22;32724;51.094;6.996;2024-02-26T12:50:17;7.30;99.90
46976;DHT22;32724;51.094;6.996;2024-02-26T12:52:47;7.30;99.90
46976;DHT22;32724;51.094;6.996;2024-02-26T12:55:18;7.30;99.90
46976;DHT22;32724;51.094;6.996;2024-02-26T12:57:45;7.30;99.90
46976;DHT22;32724;51.094;6.996;2024-02-26T13:00:13;7.30;99.90
46976;DHT22;32724;51.094;6.996;2024-02-26T13:02:41;7.30;99.90
46976;DHT22;32724;51.094;6.996;2024-02-26T13:05:10;7.40;99.90
46976;DHT22;32724;51.094;6.996;2024-02-26T13:07:43;7.50;99.90
46976;DHT22;32724;51.094;6.996;2024-02-26T13:10:10;7.50;99.90
46976;DHT22;32724;51.094;6.996;2024-02-26T13:12:49;7.60;99.90
46976;DHT22;32724;51.094;6.996;2024-02-26T13:15:20;7.50;99.90
46976;DHT22;32724;51.094;6.996;2024-02-26T13:17:47;7.40;99.90
46976;DHT22;32724;51.094;6.996;2024-02-26T13:20:24;7.40;99.90
46976;DHT22;32724;51.094;6.996;2024-02-26T13:22:50;7.30;99.90
46976;DHT22;32724;51.094;6.996;2024-02-26T13:25:20;7.40;99.90
46976;DHT22;32724;51.094;6.996;2024-02-26T13:27:46;7.40;99.90
46976;DHT22;32724;51.094;6.996;2024-02-26T13:30:12;7.50;99.90
46976;DHT22;32724;51.094;6.996;2024-02-26T13:32:39;7.40;99.90
46976;DHT22;32724;51.094;6.996;2024-02-26T13:35:07;7.50;99.90
46976;DHT22;32724;51.094;6.996;2024-02-26T13:37:36;7.50;99.90
46976;DHT22;32724;51.094;6.996;2024-02-26T13:40:11;7.60;99.90
46976;DHT22;32724;51.094;6.996;2024-02-26T13:42:38;7.60;99.90
46976;DHT22;32724;51.094;6.996;2024-02-26T13:45:04;7.80;99.90
46976;DHT22;32724;51.094;6.996;2024-02-26T13:47:36;7.80;99.90
46976;DHT22;32724;51.094;6.996;2024-02-26T13:50:02;7.80;99.90
46976;DHT22;32724;51.094;6.996;2024-02-26T13:52:28;7.50;99.90
46976;DHT22;32724;51.094;6.996;2024-02-26T13:54:53;7.60;99.90
46976;DHT22;32724;51.094;6.996;2024-02-26T13:57:19;7.40;99.90
46976;DHT22;32724;51.094;6.996;2024-02-26T13:59:45;7.30;99.90
46976;DHT22;32724;51.094;6.996;2024-02-26T14:02:11;7.40;99.90
46976;DHT22;32724;51.094;6.996;2024-02-26T14:04:37;7.50;99.90
46976;DHT22;32724;51.094;6.996;2024-02-26T14:07:04;7.60;99.90
46976;DHT22;32724;51.094;6.996;2024-02-26T14:09:29;7.80;99.90
46976;DHT22;32724;51.094;6.996;2024-02-26T14:11:55;7.90;99.90
46976;DHT22;32724;51.094;6.996;2024-02-26T14:14:21;7.90;99.90
46976;DHT22;32724;51.094;6.996;2024-02-26T14:16:46;8.10;99.90
46976;DHT22;32724;51.094;6.996;2024-02-26T14:19:12;8.00;99.90
46976;DHT22;32724;51.094;6.996;2024-02-26T14:21:37;8.00;99.90
46976;DHT22;32724;51.094;6.996;2024-02-26T14:24:04;8.00;99.90
46976;DHT22;32724;51.094;6.996;2024-02-26T14:26:29;8.10;99.90
46976;DHT22;32724;51.094;6.996;2024-02-26T14:28:55;8.10;99.90
46976;DHT22;32724;51.094;6.996;2024-02-26T14:31:21;8.10;99.90
46976;DHT22;32724;51.094;6.996;2024-02-26T14:33:47;8.00;99.90
46976;DHT22;32724;51.094;6.996;2024-02-26T14:36:13;7.90;99.90
46976;DHT22;32724;51.094;6.996;2024-02-26T14:38:39;8.00;99.90
46976;DHT22;32724;51.094;6.996;2024-02-26T14:41:05;8.00;99.90
46976;DHT22;32724;51.094;6.996;2024-02-26T14:43:31;8.00;99.90
46976;DHT22;32724;51.094;6.996;2024-02-26T14:46:01;7.90;99.90
46976;DHT22;32724;51.094;6.996;2024-02-26T14:48:27;7.90;99.90
46976;DHT22;32724;51.094;6.996;2024-02-26T14:50:53;7.90;99.90
46976;DHT22;32724;51.094;6.996;2024-02-26T14:53:19;7.90;99.90
46976;DHT22;32724;51.094;6.996;2024-02-26T14:55:44;7.90;99.90
46976;DHT22;32724;51.094;6.996;2024-02-26T14:58:10;7.90;99.90
46976;DHT22;32724;51.094;6.996;2024-02-26T15:00:36;7.90;99.90
46976;DHT22;32724;51.094;6.996;2024-02-26T15:03:02;8.00;99.90
46976;DHT22;32724;51.094;6.996;2024-02-26T15:05:28;7.90;99.90
46976;DHT22;32724;51.094;6.996;2024-02-26T15:07:54;8.00;99.90
46976;DHT22;32724;51.094;6.996;2024-02-26T15:10:19;8.00;99.90
46976;DHT22;32724;51.094;6.996;2024-02-26T15:12:45;8.00;99.90
46976;DHT22;32724;51.094;6.996;2024-02-26T15:15:11;8.00;99.90
46976;DHT22;32724;51.094;6.996;2024-02-26T15:17:36;8.00;99.90
46976;DHT22;32724;51.094;6.996;2024-02-26T15:20:02;8.00;99.90
46976;DHT22;32724;51.094;6.996;2024-02-26T15:22:28;7.80;99.90
46976;DHT22;32724;51.094;6.996;2024-02-26T15:24:54;7.70;99.90
46976;DHT22;32724;51.094;6.996;2024-02-26T15:27:19;7.60;99.90
46976;DHT22;32724;51.094;6.996;2024-02-26T15:29:45;7.60;99.90
46976;DHT22;32724;51.094;6.996;2024-02-26T15:32:11;7.60;99.90
46976;DHT22;32724;51.094;6.996;2024-02-26T15:34:36;7.70;99.90
46976;DHT22;32724;51.094;6.996;2024-02-26T15:37:02;7.70;99.90
46976;DHT22;32724;51.094;6.996;2024-02-26T15:39:28;7.70;99.90
46976;DHT22;32724;51.094;6.996;2024-02-26T15:41:54;7.70;99.90
46976;DHT22;32724;51.094;6.996;2024-02-26T15:44:19;7.70;99.90
46976;DHT22;32724;51.094;6.996;2024-02-26T15:46:45;7.70;99.90